createdAt,value
2022-09-12T00:01:14.523Z,3.53
2022-09-12T00:03:41.391Z,3.77
2022-09-12T00:06:10.151Z,3.83
2022-09-12T00:08:36.631Z,3.83
2022-09-12T00:11:06.175Z,3.50
2022-09-12T00:13:32.696Z,3.50
2022-09-12T00:15:59.181Z,3.80
2022-09-12T00:18:27.110Z,3.87
2022-09-12T00:20:53.637Z,3.63
2022-09-12T00:23:20.324Z,3.93
2022-09-12T00:25:48.528Z,4.93
2022-09-12T00:28:17.207Z,3.97
2022-09-12T00:30:44.509Z,3.53
2022-09-12T00:33:11.410Z,4.20
2022-09-12T00:35:44.282Z,3.67
2022-09-12T00:38:11.065Z,3.90
2022-09-12T00:40:37.738Z,3.97
2022-09-12T00:43:04.567Z,4.13
2022-09-12T00:45:31.629Z,4.13
2022-09-12T00:48:02.466Z,3.63
2022-09-12T00:50:31.037Z,3.67
2022-09-12T00:53:02.952Z,3.93
2022-09-12T00:55:34.440Z,4.40
2022-09-12T00:58:05.693Z,3.77
2022-09-12T01:00:32.378Z,4.07
2022-09-12T01:03:01.812Z,4.20
2022-09-12T01:05:29.554Z,3.83
2022-09-12T01:07:56.865Z,3.80
2022-09-12T01:10:24.938Z,4.00
2022-09-12T01:12:51.433Z,3.47
2022-09-12T01:15:18.130Z,3.50
2022-09-12T01:18:00.059Z,3.80
2022-09-12T01:20:45.868Z,3.83
2022-09-12T01:23:35.895Z,3.80
2022-09-12T01:26:27.559Z,4.03
2022-09-12T01:29:11.564Z,3.43
2022-09-12T01:31:46.005Z,3.27
2022-09-12T01:34:20.541Z,3.10
2022-09-12T01:36:59.110Z,5.43
2022-09-12T01:39:32.445Z,3.20
2022-09-12T01:42:10.702Z,3.50
2022-09-12T01:44:45.433Z,3.53
2022-09-12T01:47:19.821Z,3.63
2022-09-12T01:49:52.528Z,3.43
2022-09-12T01:52:23.961Z,3.70
2022-09-12T01:54:55.597Z,3.93
2022-09-12T01:57:28.320Z,3.30
2022-09-12T01:59:59.487Z,3.30
2022-09-12T02:02:33.058Z,3.70
2022-09-12T02:05:04.163Z,3.37
2022-09-12T02:07:36.743Z,3.40
2022-09-12T02:10:07.501Z,3.70
2022-09-12T02:12:39.947Z,4.53
2022-09-12T02:15:09.958Z,3.50
2022-09-12T02:17:40.965Z,3.40
2022-09-12T02:20:17.771Z,4.53
2022-09-12T02:23:00.245Z,3.33
2022-09-12T02:25:30.197Z,3.30
2022-09-12T02:28:01.895Z,2.93
2022-09-12T02:30:35.717Z,3.83
2022-09-12T02:33:08.410Z,6.20
2022-09-12T02:35:46.330Z,3.53
2022-09-12T02:38:19.403Z,3.80
2022-09-12T02:40:46.098Z,2.93
2022-09-12T02:43:12.707Z,3.67
2022-09-12T02:45:39.292Z,3.57
2022-09-12T02:48:13.339Z,3.83
2022-09-12T02:50:40.564Z,3.43
2022-09-12T02:53:08.150Z,3.30
2022-09-12T02:55:36.819Z,3.57
2022-09-12T02:58:05.618Z,3.60
2022-09-12T03:00:37.646Z,3.87
2022-09-12T03:03:29.693Z,3.47
2022-09-12T03:05:58.995Z,3.20
2022-09-12T03:08:46.800Z,3.33
2022-09-12T03:11:26.193Z,3.97
2022-09-12T03:14:02.458Z,4.17
2022-09-12T03:16:35.312Z,3.60
2022-09-12T03:19:13.896Z,4.27
2022-09-12T03:21:52.238Z,3.80
2022-09-12T03:24:24.651Z,3.10
2022-09-12T03:26:56.466Z,3.23
2022-09-12T03:29:25.699Z,3.70
2022-09-12T03:31:53.905Z,3.40
2022-09-12T03:34:23.287Z,3.40
2022-09-12T03:36:50.395Z,3.23
2022-09-12T03:39:17.465Z,4.13
2022-09-12T03:41:44.311Z,3.43
2022-09-12T03:44:10.757Z,3.50
2022-09-12T03:46:37.233Z,3.57
2022-09-12T03:49:04.068Z,3.33
2022-09-12T03:51:31.906Z,3.50
2022-09-12T03:53:58.377Z,3.63
2022-09-12T03:56:24.848Z,2.93
2022-09-12T03:58:51.363Z,3.00
2022-09-12T04:01:19.685Z,3.60
2022-09-12T04:03:47.953Z,3.20
2022-09-12T04:06:17.419Z,3.70
2022-09-12T04:08:48.274Z,3.87
2022-09-12T04:11:15.374Z,3.97
2022-09-12T04:13:44.063Z,4.53
2022-09-12T04:16:11.709Z,2.93
2022-09-12T04:18:38.659Z,3.80
2022-09-12T04:21:06.428Z,3.77
2022-09-12T04:23:32.939Z,3.67
2022-09-12T04:26:02.172Z,3.07
2022-09-12T04:28:29.418Z,3.60
2022-09-12T04:30:56.305Z,3.20
2022-09-12T04:33:22.816Z,4.33
2022-09-12T04:35:49.282Z,4.47
2022-09-12T04:38:15.748Z,3.47
2022-09-12T04:40:42.222Z,3.57
2022-09-12T04:43:14.294Z,3.13
2022-09-12T04:45:41.186Z,3.10
2022-09-12T04:48:07.660Z,3.70
2022-09-12T04:50:34.185Z,3.40
2022-09-12T04:53:00.666Z,3.93
2022-09-12T04:55:27.130Z,3.30
2022-09-12T04:57:53.607Z,4.07
2022-09-12T05:00:21.687Z,3.37
2022-09-12T05:02:48.170Z,3.83
2022-09-12T05:05:14.700Z,3.07
2022-09-12T05:07:41.159Z,3.00
2022-09-12T05:10:09.176Z,3.40
2022-09-12T05:12:35.818Z,3.37
2022-09-12T05:15:02.455Z,3.20
2022-09-12T05:17:30.458Z,2.93
2022-09-12T05:19:56.903Z,2.93
2022-09-12T05:22:23.372Z,2.97
2022-09-12T05:24:50.770Z,3.50
2022-09-12T05:27:17.414Z,4.07
2022-09-12T05:29:43.885Z,2.80
2022-09-12T05:32:10.372Z,3.20
2022-09-12T05:34:38.734Z,4.13
2022-09-12T05:37:05.225Z,3.40
2022-09-12T05:39:31.672Z,3.00
2022-09-12T05:41:58.125Z,5.33
2022-09-12T05:44:24.607Z,3.13
2022-09-12T05:46:51.075Z,2.80
2022-09-12T05:49:17.560Z,2.90
2022-09-12T05:51:45.734Z,2.50
2022-09-12T05:54:14.228Z,2.97
2022-09-12T05:56:42.147Z,2.90
2022-09-12T05:59:12.456Z,2.87
2022-09-12T06:01:39.594Z,3.03
2022-09-12T06:04:06.791Z,3.20
2022-09-12T06:06:36.489Z,2.97
2022-09-12T06:09:05.875Z,2.93
2022-09-12T06:11:34.044Z,2.90
2022-09-12T06:14:01.234Z,3.03
2022-09-12T06:16:29.333Z,2.80
2022-09-12T06:18:56.958Z,3.63
2022-09-12T06:21:24.943Z,3.50
2022-09-12T06:23:51.415Z,3.20
2022-09-12T06:26:19.341Z,3.70
2022-09-12T06:28:45.848Z,3.57
2022-09-12T06:31:14.122Z,3.40
2022-09-12T06:33:42.698Z,3.43
2022-09-12T06:36:12.714Z,3.57
2022-09-12T06:38:40.262Z,3.57
2022-09-12T06:41:08.960Z,4.83
2022-09-12T06:43:37.140Z,4.00
2022-09-12T06:46:04.050Z,4.03
2022-09-12T06:48:30.775Z,4.60
2022-09-12T06:50:57.567Z,4.27
2022-09-12T06:53:24.625Z,3.63
2022-09-12T06:55:55.769Z,4.27
2022-09-12T06:58:22.256Z,4.40
2022-09-12T07:00:50.081Z,3.70
2022-09-12T07:03:16.557Z,3.67
2022-09-12T07:05:43.038Z,3.33
2022-09-12T07:08:09.536Z,4.03
2022-09-12T07:10:36.001Z,4.60
2022-09-12T07:13:02.492Z,5.63
2022-09-12T07:15:28.951Z,4.37
2022-09-12T07:17:56.775Z,4.30
2022-09-12T07:20:23.293Z,5.03
2022-09-12T07:22:50.583Z,4.67
2022-09-12T07:25:17.041Z,4.83
2022-09-12T07:27:44.734Z,5.23
2022-09-12T07:30:12.755Z,4.50
2022-09-12T07:32:39.237Z,4.80
2022-09-12T07:35:08.032Z,4.90
2022-09-12T07:37:34.505Z,4.83
2022-09-12T07:40:01.307Z,5.17
2022-09-12T07:42:27.826Z,5.93
2022-09-12T07:44:54.302Z,6.97
2022-09-12T07:47:20.805Z,5.00
2022-09-12T07:49:47.308Z,4.40
2022-09-12T07:52:15.153Z,4.70
2022-09-12T07:54:41.617Z,4.93
2022-09-12T07:57:08.106Z,4.83
2022-09-12T07:59:51.917Z,5.60
2022-09-12T08:02:19.282Z,5.73
2022-09-12T08:04:47.587Z,5.73
2022-09-12T08:07:15.615Z,4.93
2022-09-12T08:09:42.069Z,5.37
2022-09-12T08:12:08.576Z,5.07
2022-09-12T08:14:35.051Z,5.77
2022-09-12T08:17:01.531Z,4.50
2022-09-12T08:19:28.011Z,3.50
2022-09-12T08:21:54.478Z,5.27
2022-09-12T08:24:22.391Z,5.17
2022-09-12T08:26:48.873Z,4.07
2022-09-12T08:29:15.477Z,3.87
2022-09-12T08:31:41.966Z,4.10
2022-09-12T08:34:08.736Z,4.43
2022-09-12T08:36:35.732Z,3.37
2022-09-12T08:39:04.736Z,3.27
2022-09-12T08:41:35.467Z,3.57
2022-09-12T08:44:17.607Z,4.37
2022-09-12T08:46:57.177Z,3.87
2022-09-12T08:49:28.929Z,3.60
2022-09-12T08:51:57.903Z,3.67
2022-09-12T08:54:27.075Z,3.27
2022-09-12T08:56:57.968Z,3.07
2022-09-12T08:59:24.561Z,3.60
2022-09-12T09:01:56.695Z,3.97
2022-09-12T09:04:43.691Z,3.00
2022-09-12T09:07:31.564Z,2.93
2022-09-12T09:10:08.188Z,2.43
2022-09-12T09:12:42.931Z,2.70
2022-09-12T09:15:27.301Z,2.50
2022-09-12T09:17:58.166Z,3.00
2022-09-12T09:20:30.243Z,3.97
2022-09-12T09:23:01.872Z,2.83
2022-09-12T09:25:38.619Z,2.80
2022-09-12T09:28:14.194Z,3.40
2022-09-12T09:30:43.190Z,2.77
2022-09-12T09:33:18.501Z,2.93
2022-09-12T09:35:47.136Z,2.80
2022-09-12T09:38:23.388Z,2.60
2022-09-12T09:41:00.905Z,3.60
2022-09-12T09:43:28.846Z,2.63
2022-09-12T09:45:57.162Z,3.00
2022-09-12T09:48:27.645Z,2.90
2022-09-12T09:50:54.129Z,3.00
2022-09-12T09:53:36.959Z,3.57
2022-09-12T09:56:10.090Z,3.03
2022-09-12T09:58:39.537Z,2.50
2022-09-12T10:01:12.127Z,3.17
2022-09-12T10:03:39.566Z,2.53
2022-09-12T10:06:25.835Z,3.07
2022-09-12T10:09:17.168Z,2.23
2022-09-12T10:11:45.884Z,3.10
2022-09-12T10:14:33.104Z,3.67
2022-09-12T10:16:59.606Z,2.73
2022-09-12T10:19:34.666Z,2.80
2022-09-12T10:22:01.434Z,2.70
2022-09-12T10:24:32.652Z,2.20
2022-09-12T10:27:13.882Z,2.87
2022-09-12T10:29:46.060Z,2.30
2022-09-12T10:32:13.915Z,2.80
2022-09-12T10:34:44.470Z,2.93
2022-09-12T10:37:18.305Z,3.30
2022-09-12T10:39:52.048Z,2.53
2022-09-12T10:42:46.502Z,2.20
2022-09-12T10:45:26.962Z,2.57
2022-09-12T10:47:54.452Z,2.50
2022-09-12T10:50:27.014Z,2.50
2022-09-12T10:52:54.194Z,2.00
2022-09-12T10:55:28.090Z,2.63
2022-09-12T10:58:06.107Z,3.20
2022-09-12T11:00:40.309Z,2.50
2022-09-12T11:03:15.868Z,2.67
2022-09-12T11:05:55.790Z,2.47
2022-09-12T11:08:37.701Z,2.17
2022-09-12T11:11:08.994Z,2.10
2022-09-12T11:13:50.987Z,2.60
2022-09-12T11:16:27.189Z,2.47
2022-09-12T11:19:13.228Z,2.10
2022-09-12T11:21:54.198Z,2.70
2022-09-12T11:24:52.013Z,2.53
2022-09-12T11:27:31.792Z,2.23
2022-09-12T11:30:02.859Z,2.07
2022-09-12T11:32:45.149Z,3.60
2022-09-12T11:35:19.268Z,2.80
2022-09-12T11:38:14.210Z,2.10
2022-09-12T11:40:45.330Z,2.03
2022-09-12T11:43:21.595Z,2.20
2022-09-12T11:45:49.194Z,2.07
2022-09-12T11:48:24.586Z,2.33
2022-09-12T11:50:51.856Z,2.70
2022-09-12T11:53:23.813Z,2.20
2022-09-12T11:55:55.262Z,2.60
2022-09-12T11:58:26.196Z,2.43
2022-09-12T12:00:56.080Z,2.30
2022-09-12T12:03:30.724Z,2.07
2022-09-12T12:06:00.982Z,2.30
2022-09-12T12:08:30.381Z,2.17
2022-09-12T12:10:59.248Z,2.33
2022-09-12T12:13:29.843Z,1.90
2022-09-12T12:15:59.438Z,2.27
2022-09-12T12:18:28.846Z,2.20
2022-09-12T12:20:56.889Z,1.90
2022-09-12T12:23:26.092Z,2.33
2022-09-12T12:25:54.782Z,2.10
2022-09-12T12:28:54.728Z,1.80
2022-09-12T12:31:21.302Z,2.03
2022-09-12T12:33:54.648Z,1.60
2022-09-12T12:36:34.746Z,2.10
2022-09-12T12:39:38.216Z,2.03
2022-09-12T12:42:05.277Z,1.90
2022-09-12T12:44:49.212Z,1.70
2022-09-12T12:47:19.279Z,2.07
2022-09-12T12:49:53.215Z,1.60
2022-09-12T12:52:19.977Z,1.80
2022-09-12T12:54:52.481Z,1.80
2022-09-12T12:57:37.666Z,1.93
2022-09-12T13:00:06.576Z,2.00
2022-09-12T13:02:37.017Z,1.90
2022-09-12T13:05:15.756Z,1.60
2022-09-12T13:07:43.412Z,1.70
2022-09-12T13:10:22.013Z,1.83
2022-09-12T13:12:49.892Z,1.57
2022-09-12T13:15:46.926Z,2.20
2022-09-12T13:18:17.055Z,1.80
2022-09-12T13:20:51.194Z,1.63
2022-09-12T13:23:26.070Z,1.60
2022-09-12T13:25:53.752Z,1.90
2022-09-12T13:28:20.395Z,1.80
2022-09-12T13:30:54.532Z,2.00
2022-09-12T13:33:27.488Z,1.70
2022-09-12T13:36:22.653Z,1.87
2022-09-12T13:38:57.658Z,1.60
2022-09-12T13:41:40.084Z,2.00
2022-09-12T13:44:09.722Z,2.20
2022-09-12T13:46:36.707Z,2.17
2022-09-12T13:49:11.057Z,1.77
2022-09-12T13:51:38.904Z,1.83
2022-09-12T13:54:06.087Z,2.10
2022-09-12T13:56:32.589Z,1.90
2022-09-12T13:59:01.024Z,1.80
2022-09-12T14:01:38.762Z,1.93
2022-09-12T14:04:15.396Z,2.00
2022-09-12T14:06:46.696Z,1.90
2022-09-12T14:09:14.797Z,2.27
2022-09-12T14:11:41.613Z,1.90
2022-09-12T14:14:24.010Z,1.90
2022-09-12T14:16:50.540Z,2.00
2022-09-12T14:19:17.461Z,2.40
2022-09-12T14:21:46.155Z,2.57
2022-09-12T14:24:13.240Z,2.87
2022-09-12T14:26:42.423Z,2.17
2022-09-12T14:29:09.408Z,2.10
2022-09-12T14:31:37.974Z,2.40
2022-09-12T14:34:15.567Z,3.40
2022-09-12T14:36:46.318Z,2.47
2022-09-12T14:39:21.274Z,2.37
2022-09-12T14:41:48.860Z,2.10
2022-09-12T14:44:19.113Z,1.80
2022-09-12T14:46:45.746Z,2.10
2022-09-12T14:49:16.740Z,2.00
2022-09-12T14:51:52.835Z,1.83
2022-09-12T14:54:38.595Z,2.20
2022-09-12T14:57:17.927Z,1.90
2022-09-12T14:59:44.432Z,1.97
2022-09-12T15:02:23.096Z,1.90
2022-09-12T15:04:50.943Z,2.10
2022-09-12T15:07:33.079Z,1.80
2022-09-12T15:10:00.881Z,1.60
2022-09-12T15:12:27.611Z,1.60
2022-09-12T15:14:57.971Z,1.87
2022-09-12T15:17:24.425Z,1.90
2022-09-12T15:19:50.909Z,1.90
2022-09-12T15:22:18.769Z,2.27
2022-09-12T15:24:46.779Z,1.80
2022-09-12T15:27:13.315Z,1.87
2022-09-12T15:29:39.849Z,2.30
2022-09-12T15:32:06.645Z,1.70
2022-09-12T15:34:33.481Z,2.03
2022-09-12T15:36:59.980Z,1.90
2022-09-12T15:39:26.447Z,1.90
2022-09-12T15:41:54.268Z,1.70
2022-09-12T15:44:20.808Z,1.60
2022-09-12T15:46:47.397Z,1.57
2022-09-12T15:49:13.955Z,1.70
2022-09-12T15:51:40.437Z,1.80
2022-09-12T15:54:06.981Z,1.63
2022-09-12T15:56:33.471Z,1.63
2022-09-12T15:59:01.302Z,1.67
2022-09-12T16:01:29.197Z,1.63
2022-09-12T16:03:56.082Z,1.60
2022-09-12T16:06:22.858Z,1.70
2022-09-12T16:08:49.407Z,1.70
2022-09-12T16:11:19.562Z,1.63
2022-09-12T16:13:46.015Z,1.70
2022-09-12T16:16:13.898Z,2.00
2022-09-12T16:18:41.199Z,1.50
2022-09-12T16:21:11.426Z,1.57
2022-09-12T16:23:42.237Z,1.50
2022-09-12T16:26:08.708Z,1.60
2022-09-12T16:28:35.453Z,1.90
2022-09-12T16:31:04.218Z,1.50
2022-09-12T16:33:32.530Z,1.60
2022-09-12T16:36:02.394Z,1.70
2022-09-12T16:38:28.932Z,1.60
2022-09-12T16:41:00.038Z,1.43
2022-09-12T16:43:26.563Z,1.27
2022-09-12T16:46:00.666Z,2.80
2022-09-12T16:48:27.202Z,1.47
2022-09-12T16:50:57.768Z,1.97
2022-09-12T16:53:24.294Z,1.27
2022-09-12T16:55:51.158Z,1.57
2022-09-12T16:58:17.652Z,2.70
2022-09-12T17:00:44.116Z,1.20
2022-09-12T17:03:10.605Z,1.50
2022-09-12T17:05:37.079Z,1.60
2022-09-12T17:08:05.149Z,1.47
2022-09-12T17:10:31.668Z,1.43
2022-09-12T17:12:58.151Z,1.40
2022-09-12T17:15:24.644Z,1.50
2022-09-12T17:17:51.123Z,1.40
2022-09-12T17:20:17.955Z,1.77
2022-09-12T17:22:44.427Z,1.77
2022-09-12T17:25:12.241Z,1.60
2022-09-12T17:27:38.805Z,1.57
2022-09-12T17:30:06.686Z,1.50
2022-09-12T17:32:33.175Z,1.60
2022-09-12T17:34:59.641Z,1.60
2022-09-12T17:37:26.103Z,1.73
2022-09-12T17:39:52.616Z,1.37
2022-09-12T17:42:20.472Z,2.57
2022-09-12T17:44:46.961Z,1.70
2022-09-12T17:47:13.426Z,2.03
2022-09-12T17:49:39.889Z,1.70
2022-09-12T17:52:06.409Z,1.70
2022-09-12T17:54:32.879Z,1.60
2022-09-12T17:56:59.361Z,1.70
2022-09-12T17:59:27.190Z,1.70
2022-09-12T18:01:53.757Z,1.33
2022-09-12T18:04:20.535Z,1.60
2022-09-12T18:06:47.685Z,1.73
2022-09-12T18:09:16.100Z,1.60
2022-09-12T18:11:42.567Z,1.33
2022-09-12T18:14:12.399Z,1.50
2022-09-12T18:16:41.973Z,1.90
2022-09-12T18:19:08.509Z,1.60
2022-09-12T18:21:35.148Z,1.50
2022-09-12T18:24:02.198Z,1.80
2022-09-12T18:26:29.886Z,1.60
2022-09-12T18:28:56.976Z,1.70
2022-09-12T18:31:26.473Z,1.87
2022-09-12T18:33:54.561Z,2.07
2022-09-12T18:36:21.444Z,1.67
2022-09-12T18:38:48.506Z,2.20
2022-09-12T18:41:17.456Z,1.77
2022-09-12T18:43:44.204Z,2.03
2022-09-12T18:46:13.037Z,1.63
2022-09-12T18:48:40.161Z,1.80
2022-09-12T18:51:10.813Z,2.00
2022-09-12T18:53:38.048Z,1.53
2022-09-12T18:56:06.685Z,2.23
2022-09-12T18:58:33.174Z,1.70
2022-09-12T19:00:59.706Z,2.03
2022-09-12T19:03:26.208Z,1.63
2022-09-12T19:05:52.784Z,2.00
2022-09-12T19:08:20.614Z,1.60
2022-09-12T19:10:55.601Z,1.83
2022-09-12T19:13:22.546Z,2.20
2022-09-12T19:15:49.318Z,1.60
2022-09-12T19:18:15.850Z,1.63
2022-09-12T19:20:42.318Z,1.80
2022-09-12T19:23:08.808Z,1.80
2022-09-12T19:25:36.658Z,1.80
2022-09-12T19:28:03.149Z,1.70
2022-09-12T19:30:29.622Z,1.80
2022-09-12T19:32:56.098Z,1.97
2022-09-12T19:35:22.567Z,1.93
2022-09-12T19:37:49.044Z,2.20
2022-09-12T19:40:15.794Z,2.23
2022-09-12T19:42:43.663Z,3.20
2022-09-12T19:45:10.716Z,2.67
2022-09-12T19:47:37.209Z,2.50
2022-09-12T19:50:04.529Z,2.10
2022-09-12T19:52:30.996Z,1.73
2022-09-12T19:54:57.444Z,2.00
2022-09-12T19:57:24.053Z,1.90
2022-09-12T19:59:51.875Z,2.03
2022-09-12T20:02:18.424Z,2.13
2022-09-12T20:04:44.971Z,1.73
2022-09-12T20:07:11.466Z,1.93
2022-09-12T20:09:38.096Z,2.03
2022-09-12T20:12:05.148Z,1.70
2022-09-12T20:14:32.068Z,1.60
2022-09-12T20:16:59.944Z,1.93
2022-09-12T20:19:26.575Z,1.90
2022-09-12T20:21:53.043Z,3.17
2022-09-12T20:24:19.538Z,1.97
2022-09-12T20:26:46.046Z,1.63
2022-09-12T20:29:12.629Z,2.03
2022-09-12T20:31:41.275Z,1.87
2022-09-12T20:34:14.655Z,2.03
2022-09-12T20:36:41.501Z,1.87
2022-09-12T20:39:12.603Z,1.93
2022-09-12T20:41:39.101Z,1.93
2022-09-12T20:44:05.564Z,2.00
2022-09-12T20:46:32.214Z,3.73
2022-09-12T20:48:59.001Z,2.10
2022-09-12T20:51:26.982Z,2.17
2022-09-12T20:53:54.756Z,2.30
2022-09-12T20:56:21.998Z,1.77
2022-09-12T20:58:48.516Z,2.00
2022-09-12T21:01:15.320Z,2.13
2022-09-12T21:03:42.943Z,1.97
2022-09-12T21:06:10.810Z,2.33
2022-09-12T21:08:38.959Z,2.20
2022-09-12T21:11:06.369Z,2.27
2022-09-12T21:13:32.943Z,2.60
2022-09-12T21:16:00.171Z,2.30
2022-09-12T21:18:26.739Z,2.40
2022-09-12T21:20:53.583Z,2.20
2022-09-12T21:23:20.469Z,2.67
2022-09-12T21:25:52.414Z,2.23
2022-09-12T21:28:19.578Z,3.07
2022-09-12T21:30:47.513Z,2.60
2022-09-12T21:33:14.061Z,2.80
2022-09-12T21:35:40.546Z,2.53
2022-09-12T21:38:07.027Z,2.60
2022-09-12T21:40:33.500Z,2.30
2022-09-12T21:43:01.338Z,2.50
2022-09-12T21:45:28.516Z,2.37
2022-09-12T21:47:54.987Z,2.50
2022-09-12T21:50:21.479Z,2.17
2022-09-12T21:52:47.968Z,2.33
2022-09-12T21:55:14.540Z,2.80
2022-09-12T21:57:41.037Z,2.57
2022-09-12T22:00:11.825Z,2.73
2022-09-12T22:02:38.299Z,2.53
2022-09-12T22:05:05.394Z,2.53
2022-09-12T22:07:31.904Z,2.53
2022-09-12T22:09:58.381Z,2.50
2022-09-12T22:12:25.491Z,2.13
2022-09-12T22:14:51.945Z,2.43
2022-09-12T22:17:19.773Z,2.60
2022-09-12T22:19:46.245Z,2.97
2022-09-12T22:22:12.741Z,2.57
2022-09-12T22:24:39.206Z,2.50
2022-09-12T22:27:06.764Z,2.90
2022-09-12T22:29:34.151Z,2.90
2022-09-12T22:32:00.810Z,2.50
2022-09-12T22:34:29.438Z,2.77
2022-09-12T22:36:56.260Z,2.60
2022-09-12T22:39:23.229Z,2.43
2022-09-12T22:41:50.118Z,2.43
2022-09-12T22:44:16.726Z,2.77
2022-09-12T22:46:44.256Z,2.47
2022-09-12T22:49:11.025Z,2.33
2022-09-12T22:51:38.977Z,2.17
2022-09-12T22:54:05.859Z,2.30
2022-09-12T22:56:32.399Z,3.77
2022-09-12T22:58:58.855Z,2.13
2022-09-12T23:01:25.335Z,3.33
2022-09-12T23:03:51.843Z,2.27
2022-09-12T23:06:18.485Z,2.40
2022-09-12T23:08:46.307Z,2.57
2022-09-12T23:11:14.176Z,2.20
2022-09-12T23:13:42.276Z,2.60
2022-09-12T23:16:14.168Z,2.70
2022-09-12T23:18:40.709Z,2.97
2022-09-12T23:21:08.696Z,2.97
2022-09-12T23:23:35.961Z,2.80
2022-09-12T23:26:06.148Z,2.83
2022-09-12T23:28:33.198Z,3.13
2022-09-12T23:30:59.931Z,2.80
2022-09-12T23:33:26.806Z,2.40
2022-09-12T23:35:58.143Z,4.07
2022-09-12T23:38:24.757Z,2.60
2022-09-12T23:40:51.315Z,2.93
2022-09-12T23:43:19.218Z,2.77
2022-09-12T23:45:45.724Z,3.23
2022-09-12T23:48:12.299Z,3.00
2022-09-12T23:50:39.036Z,2.50
2022-09-12T23:53:06.462Z,2.70
2022-09-12T23:55:33.062Z,2.90
2022-09-12T23:57:59.529Z,2.70
